createdAt,value
2019-06-10T00:02:25.896Z,52.34
2019-06-10T00:05:07.426Z,53.24
2019-06-10T00:07:41.073Z,53.15
2019-06-10T00:10:13.939Z,53.72
2019-06-10T00:12:48.786Z,54.31
2019-06-10T00:15:21.367Z,53.81
2019-06-10T00:18:07.022Z,54.12
2019-06-10T00:20:24.204Z,53.36
2019-06-10T00:22:54.944Z,51.59
2019-06-10T00:25:25.650Z,52.90
2019-06-10T00:27:56.274Z,54.33
2019-06-10T00:30:27.003Z,54.09
2019-06-10T00:32:58.602Z,54.47
2019-06-10T00:35:31.451Z,54.24
2019-06-10T00:38:06.040Z,53.67
2019-06-10T00:40:35.017Z,53.94
2019-06-10T00:43:07.026Z,52.75
2019-06-10T00:45:37.959Z,54.16
2019-06-10T00:48:21.642Z,53.93
2019-06-10T00:50:41.732Z,53.44
2019-06-10T00:53:14.539Z,55.66
2019-06-10T00:55:44.967Z,55.16
2019-06-10T00:58:15.609Z,53.43
2019-06-10T01:00:46.211Z,54.43
2019-06-10T01:03:16.872Z,53.33
2019-06-10T01:05:47.611Z,56.28
2019-06-10T01:08:18.243Z,57.14
2019-06-10T01:10:52.012Z,56.14
2019-06-10T01:13:21.296Z,57.73
2019-06-10T01:15:53.048Z,57.36
2019-06-10T01:18:34.979Z,56.69
2019-06-10T01:20:56.403Z,57.18
2019-06-10T01:23:27.055Z,55.90
2019-06-10T01:25:57.732Z,55.64
2019-06-10T01:28:28.374Z,55.54
2019-06-10T01:31:01.075Z,55.76
2019-06-10T01:33:31.891Z,56.08
2019-06-10T01:36:02.654Z,55.96
2019-06-10T01:38:40.828Z,55.80
2019-06-10T01:41:13.827Z,54.96
2019-06-10T01:43:43.634Z,55.18
2019-06-10T01:46:15.646Z,54.95
2019-06-10T01:48:52.078Z,55.25
2019-06-10T01:51:23.628Z,54.84
2019-06-10T01:53:54.236Z,55.16
2019-06-10T01:56:24.853Z,55.06
2019-06-10T01:58:55.462Z,54.97
2019-06-10T02:01:31.879Z,55.71
2019-06-10T02:04:04.848Z,55.35
2019-06-10T02:06:46.825Z,55.64
2019-06-10T02:09:22.908Z,55.23
2019-06-10T02:11:52.856Z,56.28
2019-06-10T02:14:25.197Z,56.01
2019-06-10T02:16:57.494Z,56.29
2019-06-10T02:19:31.172Z,56.54
2019-06-10T02:22:03.653Z,56.54
2019-06-10T02:24:36.088Z,56.59
2019-06-10T02:27:12.914Z,57.13
2019-06-10T02:29:51.394Z,57.62
2019-06-10T02:32:32.009Z,57.13
2019-06-10T02:35:13.628Z,57.18
2019-06-10T02:37:38.507Z,58.90
2019-06-10T02:40:20.604Z,58.29
2019-06-10T02:42:53.945Z,57.89
2019-06-10T02:45:32.716Z,58.41
2019-06-10T02:47:59.084Z,57.45
2019-06-10T02:51:07.659Z,58.50
2019-06-10T02:53:43.075Z,58.69
2019-06-10T02:56:16.752Z,58.38
2019-06-10T02:58:48.290Z,59.19
2019-06-10T03:01:21.723Z,60.06
2019-06-10T03:03:54.215Z,60.64
2019-06-10T03:06:32.478Z,60.60
2019-06-10T03:09:03.744Z,59.70
2019-06-10T03:11:37.244Z,60.03
2019-06-10T03:14:06.619Z,60.52
2019-06-10T03:16:42.190Z,61.13
2019-06-10T03:19:13.442Z,59.88
2019-06-10T03:21:44.707Z,59.96
2019-06-10T03:24:17.015Z,59.32
2019-06-10T03:26:47.958Z,59.04
2019-06-10T03:29:20.543Z,58.81
2019-06-10T03:31:55.220Z,58.53
2019-06-10T03:34:33.429Z,58.39
2019-06-10T03:36:58.146Z,58.26
2019-06-10T03:39:42.738Z,58.54
2019-06-10T03:42:14.244Z,58.65
2019-06-10T03:44:45.084Z,58.75
2019-06-10T03:47:28.815Z,58.49
2019-06-10T03:50:03.841Z,58.74
2019-06-10T03:52:34.614Z,58.62
2019-06-10T03:55:05.461Z,59.06
2019-06-10T03:57:36.015Z,58.49
2019-06-10T04:00:11.423Z,58.94
2019-06-10T04:02:39.882Z,59.14
2019-06-10T04:05:13.100Z,59.09
2019-06-10T04:07:43.959Z,58.62
2019-06-10T04:10:14.766Z,58.75
2019-06-10T04:12:45.550Z,59.24
2019-06-10T04:15:17.503Z,61.64
2019-06-10T04:17:48.368Z,62.09
2019-06-10T04:20:19.782Z,62.20
2019-06-10T04:22:52.333Z,62.75
2019-06-10T04:25:25.218Z,61.75
2019-06-10T04:27:55.221Z,62.21
2019-06-10T04:30:27.580Z,62.89
2019-06-10T04:32:58.330Z,62.62
2019-06-10T04:35:37.893Z,61.36
2019-06-10T04:38:08.604Z,62.06
2019-06-10T04:40:43.080Z,62.92
2019-06-10T04:43:15.709Z,63.82
2019-06-10T04:45:45.980Z,63.71
2019-06-10T04:48:16.462Z,62.25
2019-06-10T04:50:47.084Z,61.10
2019-06-10T04:53:18.710Z,60.19
2019-06-10T04:55:52.259Z,60.14
2019-06-10T04:58:24.416Z,59.89
2019-06-10T05:00:56.045Z,62.60
2019-06-10T05:03:36.454Z,62.02
2019-06-10T05:06:07.134Z,60.79
2019-06-10T05:08:37.726Z,60.14
2019-06-10T05:11:08.333Z,60.57
2019-06-10T05:13:39.037Z,60.55
2019-06-10T05:16:15.614Z,61.67
2019-06-10T05:18:46.257Z,63.88
2019-06-10T05:21:16.888Z,64.38
2019-06-10T05:23:47.491Z,63.98
2019-06-10T05:26:18.174Z,62.11
2019-06-10T05:28:48.913Z,62.54
2019-06-10T05:31:20.232Z,61.52
2019-06-10T05:33:53.062Z,61.71
2019-06-10T05:36:27.085Z,61.27
2019-06-10T05:38:56.592Z,61.50
2019-06-10T05:41:28.735Z,61.83
2019-06-10T05:44:02.555Z,61.20
2019-06-10T05:46:34.872Z,62.32
2019-06-10T05:49:05.376Z,62.45
2019-06-10T05:51:36.221Z,62.11
2019-06-10T05:54:06.780Z,62.21
2019-06-10T05:56:37.451Z,61.98
2019-06-10T05:59:09.060Z,61.75
2019-06-10T06:01:39.759Z,61.60
2019-06-10T06:04:12.680Z,61.52
2019-06-10T06:06:45.049Z,62.68
2019-06-10T06:09:15.059Z,62.70
2019-06-10T06:11:45.784Z,62.41
2019-06-10T06:14:16.490Z,62.64
2019-06-10T06:16:47.179Z,62.00
2019-06-10T06:19:17.724Z,61.89
2019-06-10T06:21:57.550Z,62.43
2019-06-10T06:24:29.514Z,61.90
2019-06-10T06:27:02.380Z,62.01
2019-06-10T06:29:33.895Z,61.41
2019-06-10T06:32:05.132Z,62.16
2019-06-10T06:34:39.927Z,62.90
2019-06-10T06:37:12.598Z,61.65
2019-06-10T06:39:43.041Z,61.09
2019-06-10T06:42:13.771Z,61.57
2019-06-10T06:44:44.319Z,61.28
2019-06-10T06:47:23.804Z,61.24
2019-06-10T06:49:56.502Z,61.87
2019-06-10T06:52:55.626Z,62.62
2019-06-10T06:54:59.380Z,62.89
2019-06-10T06:57:33.232Z,62.15
2019-06-10T07:00:34.144Z,61.70
2019-06-10T07:02:40.891Z,62.29
2019-06-10T07:05:12.623Z,62.61
2019-06-10T07:07:43.617Z,62.33
2019-06-10T07:10:15.438Z,62.35
2019-06-10T07:12:46.472Z,62.75
2019-06-10T07:15:22.377Z,63.08
2019-06-10T07:17:58.660Z,63.74
2019-06-10T07:20:32.685Z,63.36
2019-06-10T07:23:02.860Z,62.63
2019-06-10T07:25:36.666Z,63.46
2019-06-10T07:28:05.931Z,62.08
2019-06-10T07:30:51.001Z,62.62
2019-06-10T07:33:18.102Z,62.36
2019-06-10T07:35:52.509Z,62.99
2019-06-10T07:38:26.194Z,62.77
2019-06-10T07:40:55.727Z,62.38
2019-06-10T07:43:27.388Z,62.47
2019-06-10T07:46:03.396Z,61.98
2019-06-10T07:48:35.281Z,61.96
2019-06-10T07:51:08.022Z,61.78
2019-06-10T07:53:41.717Z,61.32
2019-06-10T07:56:13.036Z,60.94
2019-06-10T07:58:47.462Z,61.95
2019-06-10T08:01:22.666Z,61.37
2019-06-10T08:03:52.961Z,61.65
2019-06-10T08:06:23.651Z,62.43
2019-06-10T08:08:54.521Z,61.83
2019-06-10T08:11:25.450Z,61.02
2019-06-10T08:14:06.403Z,60.71
2019-06-10T08:16:46.563Z,60.88
2019-06-10T08:19:29.395Z,61.09
2019-06-10T08:22:03.154Z,60.70
2019-06-10T08:24:43.701Z,61.37
2019-06-10T08:27:13.261Z,60.81
2019-06-10T08:30:07.824Z,61.08
2019-06-10T08:32:45.097Z,60.98
2019-06-10T08:35:14.881Z,61.01
2019-06-10T08:37:46.315Z,61.60
2019-06-10T08:40:18.134Z,61.21
2019-06-10T08:42:48.973Z,60.93
2019-06-10T08:45:19.725Z,60.93
2019-06-10T08:47:54.243Z,60.56
2019-06-10T08:50:26.479Z,61.20
2019-06-10T08:53:10.289Z,61.41
2019-06-10T08:55:31.222Z,61.59
2019-06-10T08:58:15.749Z,61.62
2019-06-10T09:00:49.368Z,61.76
2019-06-10T09:03:19.266Z,61.25
2019-06-10T09:05:53.929Z,61.28
2019-06-10T09:08:24.597Z,60.48
2019-06-10T09:10:55.755Z,60.30
2019-06-10T09:13:26.646Z,60.54
2019-06-10T09:16:18.943Z,61.15
2019-06-10T09:18:48.158Z,61.16
2019-06-10T09:21:17.224Z,60.67
2019-06-10T09:24:03.602Z,61.20
2019-06-10T09:26:33.814Z,61.21
2019-06-10T09:29:09.485Z,60.42
2019-06-10T09:31:45.565Z,60.40
2019-06-10T09:34:14.070Z,60.31
2019-06-10T09:36:49.556Z,59.77
2019-06-10T09:39:22.988Z,59.76
2019-06-10T09:42:01.163Z,59.94
2019-06-10T09:44:27.211Z,59.77
2019-06-10T09:47:07.832Z,59.82
2019-06-10T09:49:38.674Z,59.44
2019-06-10T09:52:13.327Z,58.41
2019-06-10T09:54:52.650Z,58.26
2019-06-10T09:57:23.720Z,57.49
2019-06-10T09:59:56.315Z,57.83
2019-06-10T10:02:26.181Z,57.61
2019-06-10T10:05:03.105Z,58.07
2019-06-10T10:07:34.977Z,57.28
2019-06-10T10:10:06.298Z,57.54
2019-06-10T10:12:37.117Z,56.96
2019-06-10T10:15:26.570Z,56.43
2019-06-10T10:17:48.294Z,56.27
2019-06-10T10:20:19.528Z,57.38
2019-06-10T10:22:51.220Z,56.78
2019-06-10T10:25:23.519Z,57.59
2019-06-10T10:27:57.622Z,57.17
2019-06-10T10:30:28.357Z,57.19
2019-06-10T10:32:59.141Z,56.22
2019-06-10T10:35:32.619Z,56.17
2019-06-10T10:38:04.193Z,56.20
2019-06-10T10:40:35.055Z,55.96
2019-06-10T10:43:23.255Z,56.36
2019-06-10T10:45:38.484Z,56.12
2019-06-10T10:48:09.330Z,56.12
2019-06-10T10:50:40.153Z,55.07
2019-06-10T10:53:12.836Z,55.41
2019-06-10T10:55:43.765Z,54.89
2019-06-10T10:58:15.617Z,53.87
2019-06-10T11:00:56.465Z,53.45
2019-06-10T11:03:25.217Z,54.11
2019-06-10T11:06:00.777Z,54.08
2019-06-10T11:08:28.354Z,52.74
2019-06-10T11:11:03.651Z,54.37
2019-06-10T11:13:37.000Z,53.15
2019-06-10T11:16:10.936Z,53.67
2019-06-10T11:18:42.323Z,53.58
2019-06-10T11:21:13.710Z,54.61
2019-06-10T11:23:46.165Z,53.77
2019-06-10T11:26:16.965Z,54.70
2019-06-10T11:28:47.830Z,55.13
2019-06-10T11:31:18.683Z,54.24
2019-06-10T11:33:51.347Z,53.83
2019-06-10T11:36:22.777Z,54.68
2019-06-10T11:38:56.941Z,54.54
2019-06-10T11:41:26.270Z,53.63
2019-06-10T11:44:01.484Z,53.58
2019-06-10T11:46:35.269Z,54.62
2019-06-10T11:49:06.092Z,54.19
2019-06-10T11:51:36.786Z,53.24
2019-06-10T11:54:07.588Z,53.51
2019-06-10T11:56:38.347Z,52.67
2019-06-10T11:59:10.089Z,53.36
2019-06-10T12:01:42.699Z,52.65
2019-06-10T12:04:13.551Z,51.14
2019-06-10T12:06:44.196Z,51.06
2019-06-10T12:09:14.920Z,51.30
2019-06-10T12:11:45.744Z,51.21
2019-06-10T12:14:17.496Z,51.83
2019-06-10T12:17:17.436Z,52.25
2019-06-10T12:19:27.519Z,52.44
2019-06-10T12:22:03.671Z,51.41
2019-06-10T12:24:33.035Z,50.01
2019-06-10T12:27:04.984Z,49.41
2019-06-10T12:29:36.250Z,49.02
2019-06-10T12:32:08.043Z,50.15
2019-06-10T12:34:38.750Z,48.56
2019-06-10T12:37:13.051Z,49.73
2019-06-10T12:39:42.468Z,49.14
2019-06-10T12:42:14.348Z,48.76
2019-06-10T12:44:45.254Z,49.38
2019-06-10T12:47:17.092Z,49.36
2019-06-10T12:49:53.232Z,49.23
2019-06-10T12:52:23.739Z,49.15
2019-06-10T12:54:55.581Z,48.94
2019-06-10T12:57:26.508Z,49.34
2019-06-10T12:59:58.441Z,49.16
2019-06-10T13:02:34.047Z,49.49
2019-06-10T13:05:05.693Z,48.51
2019-06-10T13:07:36.056Z,48.83
2019-06-10T13:10:08.153Z,48.62
2019-06-10T13:12:42.905Z,47.12
2019-06-10T13:15:13.901Z,47.89
2019-06-10T13:17:48.814Z,48.10
2019-06-10T13:20:19.642Z,48.60
2019-06-10T13:22:50.695Z,48.11
2019-06-10T13:25:22.160Z,48.88
2019-06-10T13:27:53.080Z,48.47
2019-06-10T13:30:24.105Z,48.27
2019-06-10T13:32:56.352Z,49.21
2019-06-10T13:35:28.178Z,50.20
2019-06-10T13:37:59.123Z,50.06
2019-06-10T13:40:31.893Z,49.72
2019-06-10T13:43:06.035Z,51.07
2019-06-10T13:45:43.122Z,50.65
2019-06-10T13:48:23.323Z,48.83
2019-06-10T13:50:58.633Z,48.04
2019-06-10T13:53:36.448Z,47.17
2019-06-10T13:56:32.374Z,48.30
2019-06-10T13:58:45.056Z,46.44
2019-06-10T14:01:21.510Z,47.00
2019-06-10T14:03:48.087Z,47.54
2019-06-10T14:06:37.092Z,47.88
2019-06-10T14:08:54.889Z,46.39
2019-06-10T14:11:28.480Z,47.00
2019-06-10T14:13:57.428Z,47.68
2019-06-10T14:16:32.878Z,46.41
2019-06-10T14:19:05.809Z,47.04
2019-06-10T14:21:35.324Z,46.28
2019-06-10T14:24:08.138Z,45.84
2019-06-10T14:26:42.950Z,45.67
2019-06-10T14:29:14.254Z,46.15
2019-06-10T14:31:47.798Z,45.64
2019-06-10T14:34:18.720Z,45.40
2019-06-10T14:36:49.799Z,45.88
2019-06-10T14:39:22.106Z,45.97
2019-06-10T14:41:54.878Z,46.48
2019-06-10T14:44:25.748Z,46.10
2019-06-10T14:46:58.796Z,46.18
2019-06-10T14:49:33.891Z,46.82
2019-06-10T14:52:12.257Z,46.49
2019-06-10T14:54:42.904Z,47.04
2019-06-10T14:57:15.086Z,46.87
2019-06-10T14:59:46.691Z,47.58
2019-06-10T15:02:18.501Z,47.96
2019-06-10T15:04:49.287Z,50.39
2019-06-10T15:07:23.445Z,50.95
2019-06-10T15:09:52.746Z,51.94
2019-06-10T15:12:23.567Z,54.59
2019-06-10T15:14:55.393Z,56.63
2019-06-10T15:17:27.197Z,55.18
2019-06-10T15:19:58.060Z,55.13
2019-06-10T15:22:28.887Z,56.49
2019-06-10T15:25:03.208Z,58.08
2019-06-10T15:27:34.887Z,59.55
2019-06-10T15:30:14.783Z,60.33
2019-06-10T15:32:42.654Z,61.58
2019-06-10T15:35:18.649Z,61.63
2019-06-10T15:37:49.040Z,62.37
2019-06-10T15:40:19.869Z,64.03
2019-06-10T15:43:01.089Z,65.73
2019-06-10T15:45:32.704Z,66.95
2019-06-10T15:48:03.473Z,66.98
2019-06-10T15:50:34.197Z,69.13
2019-06-10T15:53:06.914Z,69.25
2019-06-10T15:56:05.758Z,70.29
2019-06-10T15:58:12.902Z,71.23
2019-06-10T16:00:43.449Z,71.03
2019-06-10T16:03:21.136Z,70.06
2019-06-10T16:05:55.908Z,69.37
2019-06-10T16:08:33.463Z,69.72
2019-06-10T16:11:04.301Z,70.18
2019-06-10T16:13:35.091Z,70.07
2019-06-10T16:16:12.826Z,69.38
2019-06-10T16:19:02.283Z,69.75
2019-06-10T16:21:34.143Z,70.96
2019-06-10T16:24:08.464Z,70.57
2019-06-10T16:26:39.426Z,70.49
2019-06-10T16:29:12.336Z,69.86
2019-06-10T16:31:43.380Z,70.91
2019-06-10T16:34:14.730Z,71.28
2019-06-10T16:36:46.265Z,70.88
2019-06-10T16:39:25.647Z,70.68
2019-06-10T16:41:57.481Z,71.91
2019-06-10T16:44:32.788Z,70.97
2019-06-10T16:47:03.562Z,70.88
2019-06-10T16:49:34.820Z,69.62
2019-06-10T16:52:05.561Z,68.94
2019-06-10T16:54:42.154Z,69.33
2019-06-10T16:57:14.525Z,69.52
2019-06-10T16:59:47.512Z,69.82
2019-06-10T17:02:19.270Z,71.27
2019-06-10T17:04:52.670Z,71.44
2019-06-10T17:07:24.523Z,71.22
2019-06-10T17:09:55.569Z,72.20
2019-06-10T17:12:30.226Z,72.27
2019-06-10T17:15:03.435Z,71.14
2019-06-10T17:17:38.032Z,71.31
2019-06-10T17:20:09.406Z,71.27
2019-06-10T17:22:40.251Z,70.84
2019-06-10T17:25:13.060Z,70.03
2019-06-10T17:27:45.406Z,66.85
2019-06-10T17:30:16.397Z,63.50
2019-06-10T17:32:48.119Z,61.96
2019-06-10T17:35:20.505Z,60.07
2019-06-10T17:37:52.293Z,58.49
2019-06-10T17:40:26.035Z,58.94
2019-06-10T17:42:56.777Z,57.19
2019-06-10T17:45:33.645Z,57.42
2019-06-10T17:48:05.895Z,57.54
2019-06-10T17:50:36.535Z,56.39
2019-06-10T17:53:08.255Z,55.73
2019-06-10T17:55:39.002Z,55.08
2019-06-10T17:58:09.651Z,54.96
2019-06-10T18:00:42.268Z,56.56
2019-06-10T18:03:13.209Z,55.11
2019-06-10T18:05:43.885Z,56.83
2019-06-10T18:08:14.612Z,56.06
2019-06-10T18:10:53.893Z,55.41
2019-06-10T18:13:26.182Z,55.73
2019-06-10T18:16:05.819Z,56.12
2019-06-10T18:18:37.319Z,56.61
2019-06-10T18:21:08.157Z,56.79
2019-06-10T18:23:39.977Z,56.50
2019-06-10T18:26:12.394Z,56.46
2019-06-10T18:29:01.951Z,56.72
2019-06-10T18:31:29.574Z,57.46
2019-06-10T18:34:02.369Z,57.43
2019-06-10T18:36:34.637Z,57.77
2019-06-10T18:39:06.678Z,57.98
2019-06-10T18:41:37.563Z,58.26
2019-06-10T18:44:19.796Z,58.72
2019-06-10T18:46:43.314Z,59.24
2019-06-10T18:49:17.298Z,59.11
2019-06-10T18:51:48.025Z,58.83
2019-06-10T18:54:19.198Z,59.43
2019-06-10T18:56:52.582Z,60.17
2019-06-10T18:59:23.456Z,59.86
2019-06-10T19:01:54.237Z,59.71
2019-06-10T19:04:28.656Z,60.04
2019-06-10T19:07:02.770Z,60.45
2019-06-10T19:09:37.299Z,61.13
2019-06-10T19:12:06.592Z,61.16
2019-06-10T19:14:38.336Z,61.67
2019-06-10T19:17:12.323Z,62.15
2019-06-10T19:19:43.229Z,62.48
2019-06-10T19:22:14.110Z,61.54
2019-06-10T19:24:45.658Z,60.93
2019-06-10T19:27:17.532Z,61.45
2019-06-10T19:29:51.308Z,61.53
2019-06-10T19:32:24.209Z,61.53
2019-06-10T19:34:57.037Z,61.60
2019-06-10T19:37:27.768Z,62.20
2019-06-10T19:39:59.521Z,62.24
2019-06-10T19:42:32.946Z,62.75
2019-06-10T19:45:07.956Z,65.26
2019-06-10T19:47:45.569Z,66.16
2019-06-10T19:50:16.521Z,68.47
2019-06-10T19:52:56.884Z,71.89
2019-06-10T19:55:32.020Z,72.89
2019-06-10T19:58:03.743Z,74.50
2019-06-10T20:00:35.947Z,75.92
2019-06-10T20:03:09.674Z,75.12
2019-06-10T20:05:46.896Z,76.30
2019-06-10T20:08:18.956Z,77.68
2019-06-10T20:10:54.597Z,78.30
2019-06-10T20:13:25.828Z,78.64
2019-06-10T20:15:57.165Z,79.27
2019-06-10T20:18:29.107Z,79.65
2019-06-10T20:21:02.644Z,79.63
2019-06-10T20:23:35.358Z,79.79
2019-06-10T20:26:06.200Z,80.48
2019-06-10T20:28:41.329Z,81.03
2019-06-10T20:31:13.829Z,81.87
2019-06-10T20:33:44.581Z,81.01
2019-06-10T20:36:21.974Z,79.76
2019-06-10T20:38:48.883Z,79.88
2019-06-10T20:41:22.269Z,80.15
2019-06-10T20:43:55.511Z,80.14
2019-06-10T20:46:27.432Z,80.50
2019-06-10T20:49:03.257Z,80.35
2019-06-10T20:51:48.882Z,79.21
2019-06-10T20:54:07.685Z,80.04
2019-06-10T20:56:41.087Z,79.90
2019-06-10T20:59:13.133Z,80.55
2019-06-10T21:01:49.432Z,79.73
2019-06-10T21:04:20.306Z,80.23
2019-06-10T21:07:05.903Z,80.31
2019-06-10T21:09:37.504Z,80.07
2019-06-10T21:12:13.054Z,80.15
2019-06-10T21:14:45.671Z,79.92
2019-06-10T21:17:16.908Z,79.07
2019-06-10T21:19:49.129Z,79.66
2019-06-10T21:22:19.965Z,79.86
2019-06-10T21:25:05.243Z,80.29
2019-06-10T21:27:35.990Z,81.30
2019-06-10T21:30:11.671Z,80.87
2019-06-10T21:32:41.728Z,81.22
2019-06-10T21:35:13.470Z,81.21
2019-06-10T21:37:49.735Z,81.11
2019-06-10T21:40:22.158Z,81.14
2019-06-10T21:42:54.122Z,80.36
2019-06-10T21:45:24.899Z,80.61
2019-06-10T21:48:06.842Z,81.61
2019-06-10T21:50:45.257Z,81.00
2019-06-10T21:53:16.747Z,81.48
2019-06-10T21:55:48.810Z,81.66
2019-06-10T21:58:25.292Z,80.92
2019-06-10T22:01:12.559Z,82.26
2019-06-10T22:03:37.790Z,82.33
2019-06-10T22:06:16.904Z,82.45
2019-06-10T22:08:50.064Z,82.09
2019-06-10T22:11:23.431Z,82.01
2019-06-10T22:13:56.374Z,82.79
2019-06-10T22:16:27.344Z,82.62
2019-06-10T22:18:58.030Z,83.38
2019-06-10T22:21:33.466Z,82.27
2019-06-10T22:24:06.272Z,82.37
2019-06-10T22:26:43.060Z,81.99
2019-06-10T22:29:13.771Z,82.21
2019-06-10T22:31:45.220Z,82.18
2019-06-10T22:34:17.168Z,81.05
2019-06-10T22:36:48.035Z,81.31
2019-06-10T22:39:22.260Z,81.57
2019-06-10T22:41:55.134Z,80.84
2019-06-10T22:44:35.449Z,81.07
2019-06-10T22:47:08.213Z,81.00
2019-06-10T22:49:38.880Z,80.97
2019-06-10T22:52:12.420Z,80.91
2019-06-10T22:54:43.157Z,80.20
2019-06-10T22:57:15.541Z,81.01
2019-06-10T22:59:46.210Z,80.89
2019-06-10T23:02:18.847Z,81.28
2019-06-10T23:04:54.528Z,80.60
2019-06-10T23:07:24.270Z,80.75
2019-06-10T23:09:56.374Z,80.43
2019-06-10T23:12:30.646Z,79.86
2019-06-10T23:15:05.172Z,79.02
2019-06-10T23:17:39.220Z,79.91
2019-06-10T23:20:12.375Z,79.40
2019-06-10T23:22:42.604Z,80.09
2019-06-10T23:25:13.511Z,80.74
2019-06-10T23:27:46.161Z,80.51
2019-06-10T23:30:18.875Z,80.20
2019-06-10T23:33:03.617Z,79.98
2019-06-10T23:35:38.331Z,80.30
2019-06-10T23:38:09.488Z,80.54
2019-06-10T23:40:42.738Z,80.69
2019-06-10T23:43:13.371Z,80.58
2019-06-10T23:45:48.314Z,79.83
2019-06-10T23:48:18.969Z,79.55
2019-06-10T23:50:52.707Z,78.88
2019-06-10T23:53:23.359Z,79.05
2019-06-10T23:55:56.177Z,78.96
2019-06-10T23:58:27.580Z,80.19
